createdAt,value
2018-04-14T00:02:43.097Z,10.70
2018-04-14T00:05:52.583Z,10.70
2018-04-14T00:09:02.771Z,10.60
2018-04-14T00:12:12.687Z,10.50
2018-04-14T00:15:22.553Z,10.40
2018-04-14T00:18:32.375Z,10.50
2018-04-14T00:21:41.877Z,10.40
2018-04-14T00:24:52.053Z,10.50
2018-04-14T00:28:02.320Z,10.50
2018-04-14T00:31:12.410Z,10.60
2018-04-14T00:34:22.639Z,10.50
2018-04-14T00:37:32.605Z,10.60
2018-04-14T00:40:41.891Z,10.70
2018-04-14T00:43:51.807Z,10.60
2018-04-14T00:47:01.692Z,10.70
2018-04-14T00:50:11.276Z,10.70
2018-04-14T00:53:39.273Z,10.60
2018-04-14T00:56:48.815Z,10.50
2018-04-14T00:59:58.447Z,10.70
2018-04-14T01:03:07.871Z,10.60
2018-04-14T01:06:18.199Z,10.50
2018-04-14T01:09:28.667Z,10.50
2018-04-14T01:12:38.066Z,10.50
2018-04-14T01:15:47.907Z,10.60
2018-04-14T01:18:58.148Z,10.60
2018-04-14T01:22:07.604Z,10.60
2018-04-14T01:25:20.864Z,10.60
2018-04-14T01:28:30.224Z,10.60
2018-04-14T01:31:39.619Z,10.90
2018-04-14T01:34:49.477Z,10.70
2018-04-14T01:37:58.919Z,10.80
2018-04-14T01:41:08.768Z,10.80
2018-04-14T01:44:19.001Z,10.70
2018-04-14T01:47:28.439Z,10.80
2018-04-14T01:50:39.228Z,10.60
2018-04-14T01:53:48.988Z,10.70
2018-04-14T01:56:58.453Z,10.70
2018-04-14T02:00:08.571Z,10.70
2018-04-14T02:03:18.225Z,10.80
2018-04-14T02:06:28.155Z,10.80
2018-04-14T02:09:38.471Z,10.80
2018-04-14T02:12:48.303Z,10.80
2018-04-14T02:15:57.704Z,10.80
2018-04-14T02:19:07.149Z,10.80
2018-04-14T02:22:16.648Z,10.60
2018-04-14T02:25:26.015Z,10.90
2018-04-14T02:28:35.456Z,10.80
2018-04-14T02:31:45.779Z,10.70
2018-04-14T02:34:55.315Z,10.70
2018-04-14T02:38:04.648Z,10.60
2018-04-14T02:41:14.539Z,10.80
2018-04-14T02:44:24.111Z,10.60
2018-04-14T02:47:33.547Z,10.80
2018-04-14T02:50:42.998Z,10.70
2018-04-14T02:53:54.410Z,10.60
2018-04-14T02:57:04.126Z,10.50
2018-04-14T03:00:14.371Z,10.50
2018-04-14T03:03:24.264Z,10.40
2018-04-14T03:06:33.878Z,10.40
2018-04-14T03:09:43.794Z,10.40
2018-04-14T03:12:53.636Z,10.50
2018-04-14T03:16:03.823Z,10.40
2018-04-14T03:19:14.120Z,10.40
2018-04-14T03:22:23.923Z,10.30
2018-04-14T03:25:33.396Z,10.20
2018-04-14T03:28:43.436Z,10.20
2018-04-14T03:31:53.739Z,10.30
2018-04-14T03:35:04.027Z,10.20
2018-04-14T03:38:14.219Z,10.20
2018-04-14T03:41:24.463Z,9.90
2018-04-14T03:44:33.954Z,10.20
2018-04-14T03:47:44.295Z,10.30
2018-04-14T03:50:54.465Z,10.30
2018-04-14T03:54:04.616Z,10.30
2018-04-14T03:57:14.583Z,10.30
2018-04-14T04:00:24.806Z,10.30
2018-04-14T04:03:34.157Z,10.40
2018-04-14T04:06:43.497Z,10.30
2018-04-14T04:09:53.387Z,10.10
2018-04-14T04:13:04.456Z,10.30
2018-04-14T04:16:13.911Z,10.30
2018-04-14T04:19:41.567Z,10.30
2018-04-14T04:23:09.399Z,10.30
2018-04-14T04:26:19.660Z,10.30
2018-04-14T04:29:29.183Z,10.20
2018-04-14T04:32:39.441Z,10.10
2018-04-14T04:35:48.803Z,10.20
2018-04-14T04:38:59.030Z,10.10
2018-04-14T04:42:08.916Z,10.20
2018-04-14T04:45:19.008Z,10.10
2018-04-14T04:48:28.914Z,10.20
2018-04-14T04:51:38.309Z,10.20
2018-04-14T04:54:48.677Z,10.10
2018-04-14T04:57:59.212Z,10.10
2018-04-14T05:01:09.049Z,10.00
2018-04-14T05:04:19.303Z,10.10
2018-04-14T05:07:30.171Z,10.00
2018-04-14T05:10:40.473Z,10.00
2018-04-14T05:13:49.875Z,9.80
2018-04-14T05:16:59.731Z,9.70
2018-04-14T05:20:09.633Z,9.90
2018-04-14T05:23:19.863Z,9.80
2018-04-14T05:26:29.711Z,9.80
2018-04-14T05:29:39.171Z,9.70
2018-04-14T05:32:48.804Z,9.70
2018-04-14T05:35:59.659Z,9.70
2018-04-14T05:39:09.119Z,9.90
2018-04-14T05:42:20.420Z,9.70
2018-04-14T05:45:30.659Z,9.70
2018-04-14T05:48:40.088Z,9.90
2018-04-14T05:51:49.528Z,9.70
2018-04-14T05:54:58.940Z,10.00
2018-04-14T05:58:09.647Z,9.90
2018-04-14T06:01:19.975Z,10.00
2018-04-14T06:04:29.775Z,10.10
2018-04-14T06:07:39.377Z,10.10
2018-04-14T06:10:49.847Z,10.20
2018-04-14T06:13:59.940Z,10.30
2018-04-14T06:17:09.365Z,10.60
2018-04-14T06:20:19.685Z,10.80
2018-04-14T06:23:29.285Z,10.50
2018-04-14T06:26:39.024Z,10.50
2018-04-14T06:29:48.487Z,10.60
2018-04-14T06:32:58.000Z,10.40
2018-04-14T06:36:08.770Z,10.50
2018-04-14T06:39:18.824Z,10.80
2018-04-14T06:42:28.166Z,10.60
2018-04-14T06:45:41.234Z,11.00
2018-04-14T06:48:51.859Z,10.90
2018-04-14T06:52:02.063Z,10.70
2018-04-14T06:55:11.419Z,10.70
2018-04-14T06:58:21.672Z,10.70
2018-04-14T07:01:31.481Z,10.90
2018-04-14T07:04:44.834Z,10.80
2018-04-14T07:07:54.181Z,11.00
2018-04-14T07:11:08.005Z,11.10
2018-04-14T07:14:18.212Z,11.50
2018-04-14T07:17:33.140Z,11.80
2018-04-14T07:20:42.580Z,11.80
2018-04-14T07:23:52.187Z,11.40
2018-04-14T07:27:02.441Z,11.40
2018-04-14T07:30:11.948Z,11.50
2018-04-14T07:33:21.292Z,11.70
2018-04-14T07:36:31.905Z,11.50
2018-04-14T07:39:49.795Z,11.40
2018-04-14T07:42:59.716Z,11.40
2018-04-14T07:46:10.164Z,11.60
2018-04-14T07:49:20.944Z,11.80
2018-04-14T07:52:30.547Z,12.00
2018-04-14T07:55:41.034Z,12.20
2018-04-14T07:58:51.273Z,12.20
2018-04-14T08:02:00.876Z,12.20
2018-04-14T08:05:11.980Z,12.20
2018-04-14T08:08:21.358Z,12.10
2018-04-14T08:11:32.184Z,11.70
2018-04-14T08:14:41.639Z,11.50
2018-04-14T08:17:51.547Z,11.60
2018-04-14T08:21:00.907Z,11.80
2018-04-14T08:24:10.573Z,10.10
2018-04-14T08:27:20.032Z,11.70
2018-04-14T08:30:29.425Z,11.70
2018-04-14T08:33:39.145Z,12.10
2018-04-14T08:36:48.993Z,12.50
2018-04-14T08:39:58.436Z,12.70
2018-04-14T08:43:08.644Z,12.50
2018-04-14T08:46:18.139Z,12.10
2018-04-14T08:49:27.979Z,12.50
2018-04-14T08:52:37.751Z,12.40
2018-04-14T08:55:47.251Z,12.80
2018-04-14T08:59:00.588Z,13.00
2018-04-14T09:02:10.043Z,12.90
2018-04-14T09:05:19.900Z,13.50
2018-04-14T09:08:29.399Z,14.40
2018-04-14T09:11:38.978Z,14.50
2018-04-14T09:14:48.697Z,14.60
2018-04-14T09:17:58.884Z,13.90
2018-04-14T09:21:08.564Z,13.10
2018-04-14T09:24:17.975Z,13.20
2018-04-14T09:27:28.566Z,13.20
2018-04-14T09:30:39.044Z,13.60
2018-04-14T09:33:48.670Z,13.20
2018-04-14T09:36:58.782Z,13.20
2018-04-14T09:40:08.611Z,13.70
2018-04-14T09:43:18.356Z,13.40
2018-04-14T09:46:27.903Z,13.40
2018-04-14T09:49:37.709Z,13.50
2018-04-14T09:52:47.625Z,13.90
2018-04-14T09:55:59.160Z,13.60
2018-04-14T09:59:09.337Z,13.50
2018-04-14T10:02:19.604Z,13.50
2018-04-14T10:05:29.470Z,13.80
2018-04-14T10:08:39.688Z,13.90
2018-04-14T10:11:50.085Z,13.80
2018-04-14T10:14:59.609Z,13.90
2018-04-14T10:18:10.148Z,13.80
2018-04-14T10:21:19.513Z,14.30
2018-04-14T10:24:29.820Z,14.00
2018-04-14T10:27:40.052Z,14.50
2018-04-14T10:30:49.864Z,14.40
2018-04-14T10:34:00.107Z,14.40
2018-04-14T10:37:10.380Z,14.80
2018-04-14T10:40:23.833Z,14.20
2018-04-14T10:43:33.200Z,14.00
2018-04-14T10:46:42.824Z,13.70
2018-04-14T10:49:53.685Z,13.90
2018-04-14T10:53:03.145Z,14.30
2018-04-14T10:56:14.235Z,14.00
2018-04-14T10:59:23.676Z,14.00
2018-04-14T11:02:33.524Z,14.40
2018-04-14T11:05:42.951Z,14.50
2018-04-14T11:08:53.008Z,14.00
2018-04-14T11:12:06.505Z,13.80
2018-04-14T11:15:16.048Z,14.10
2018-04-14T11:18:26.540Z,14.50
2018-04-14T11:21:36.135Z,14.10
2018-04-14T11:24:45.476Z,14.20
2018-04-14T11:27:55.226Z,15.30
2018-04-14T11:31:05.647Z,14.70
2018-04-14T11:34:15.893Z,14.40
2018-04-14T11:37:25.465Z,14.70
2018-04-14T11:40:35.032Z,14.80
2018-04-14T11:43:45.684Z,15.00
2018-04-14T11:46:55.905Z,15.00
2018-04-14T11:50:05.958Z,15.00
2018-04-14T11:53:16.219Z,15.20
2018-04-14T11:56:26.697Z,15.10
2018-04-14T11:59:36.916Z,15.30
2018-04-14T12:02:46.395Z,16.00
2018-04-14T12:05:56.009Z,15.70
2018-04-14T12:09:06.341Z,15.80
2018-04-14T12:12:16.136Z,15.80
2018-04-14T12:15:25.579Z,15.90
2018-04-14T12:18:35.880Z,16.10
2018-04-14T12:21:45.275Z,15.40
2018-04-14T12:24:55.179Z,15.80
2018-04-14T12:28:04.824Z,16.10
2018-04-14T12:31:14.175Z,14.90
2018-04-14T12:34:24.419Z,16.50
2018-04-14T12:37:34.811Z,16.90
2018-04-14T12:40:44.947Z,16.90
2018-04-14T12:43:54.833Z,16.60
2018-04-14T12:47:05.112Z,15.80
2018-04-14T12:50:14.910Z,15.30
2018-04-14T12:53:24.714Z,15.30
2018-04-14T12:56:35.081Z,16.10
2018-04-14T12:59:45.344Z,16.10
2018-04-14T13:02:55.633Z,15.90
2018-04-14T13:06:05.959Z,16.10
2018-04-14T13:09:15.323Z,16.80
2018-04-14T13:12:24.763Z,17.60
2018-04-14T13:15:34.216Z,18.00
2018-04-14T13:18:44.416Z,18.30
2018-04-14T13:21:53.842Z,19.40
2018-04-14T13:25:03.492Z,20.10
2018-04-14T13:28:12.944Z,19.50
2018-04-14T13:31:22.367Z,18.80
2018-04-14T13:34:33.883Z,19.20
2018-04-14T13:37:44.133Z,19.90
2018-04-14T13:40:53.549Z,19.50
2018-04-14T13:44:03.535Z,19.10
2018-04-14T13:47:13.335Z,19.60
2018-04-14T13:50:23.519Z,19.70
2018-04-14T13:53:33.388Z,19.40
2018-04-14T13:56:42.796Z,20.20
2018-04-14T13:59:52.492Z,20.30
2018-04-14T14:03:02.539Z,20.70
2018-04-14T14:06:12.884Z,20.40
2018-04-14T14:09:23.015Z,20.10
2018-04-14T14:12:32.860Z,19.90
2018-04-14T14:15:42.771Z,20.00
2018-04-14T14:18:53.263Z,20.30
2018-04-14T14:22:03.571Z,21.00
2018-04-14T14:25:13.489Z,20.30
2018-04-14T14:28:23.363Z,20.80
2018-04-14T14:31:32.861Z,21.00
2018-04-14T14:34:43.205Z,19.60
2018-04-14T14:37:52.908Z,19.30
2018-04-14T14:41:02.729Z,19.60
2018-04-14T14:44:12.186Z,20.40
2018-04-14T14:47:22.467Z,20.80
2018-04-14T14:50:31.925Z,20.80
2018-04-14T14:53:41.784Z,21.00
2018-04-14T14:56:51.198Z,20.10
2018-04-14T15:00:01.429Z,21.50
2018-04-14T15:03:11.281Z,22.10
2018-04-14T15:06:20.774Z,20.90
2018-04-14T15:09:30.997Z,20.20
2018-04-14T15:12:41.227Z,20.30
2018-04-14T15:15:50.684Z,20.30
2018-04-14T15:19:00.379Z,20.20
2018-04-14T15:22:09.811Z,19.70
2018-04-14T15:25:20.088Z,19.90
2018-04-14T15:28:30.095Z,19.90
2018-04-14T15:31:39.949Z,19.20
2018-04-14T15:34:49.807Z,18.80
2018-04-14T15:37:59.239Z,19.50
2018-04-14T15:41:08.969Z,19.80
2018-04-14T15:44:18.743Z,20.60
2018-04-14T15:47:29.394Z,22.10
2018-04-14T15:50:39.782Z,21.70
2018-04-14T15:57:00.787Z,21.90
2018-04-14T16:00:10.736Z,21.60
2018-04-14T16:03:21.552Z,20.90
2018-04-14T16:06:31.042Z,19.70
2018-04-14T16:09:40.856Z,20.20
2018-04-14T16:12:50.401Z,19.70
2018-04-14T16:16:01.072Z,19.50
2018-04-14T16:19:17.417Z,18.60
2018-04-14T16:22:28.523Z,17.50
2018-04-14T16:25:42.172Z,17.00
2018-04-14T16:28:52.297Z,17.70
2018-04-14T16:32:01.907Z,18.10
2018-04-14T16:35:11.800Z,18.80
2018-04-14T16:38:22.067Z,19.90
2018-04-14T16:41:31.950Z,20.70
2018-04-14T16:44:42.377Z,21.50
2018-04-14T16:47:52.626Z,21.10
2018-04-14T16:51:02.880Z,20.00
2018-04-14T16:54:12.436Z,19.40
2018-04-14T16:57:21.913Z,18.80
2018-04-14T17:00:32.181Z,18.10
2018-04-14T17:03:41.626Z,17.90
2018-04-14T17:06:51.858Z,17.70
2018-04-14T17:10:01.248Z,17.30
2018-04-14T17:13:10.957Z,17.00
2018-04-14T17:16:20.296Z,16.70
2018-04-14T17:19:30.033Z,16.30
2018-04-14T17:22:40.883Z,15.90
2018-04-14T17:25:50.400Z,15.60
2018-04-14T17:28:59.719Z,15.30
2018-04-14T17:32:09.799Z,15.40
2018-04-14T17:35:19.107Z,15.40
2018-04-14T17:38:28.964Z,15.30
2018-04-14T17:41:38.900Z,15.20
2018-04-14T17:44:48.360Z,15.10
2018-04-14T17:47:58.823Z,15.00
2018-04-14T17:51:08.913Z,14.80
2018-04-14T17:54:18.298Z,14.80
2018-04-14T17:57:28.149Z,14.60
2018-04-14T18:00:37.520Z,14.60
2018-04-14T18:03:47.240Z,14.50
2018-04-14T18:06:57.373Z,14.20
2018-04-14T18:10:06.772Z,14.20
2018-04-14T18:13:17.180Z,13.90
2018-04-14T18:16:26.385Z,13.70
2018-04-14T18:19:36.299Z,13.70
2018-04-14T18:22:46.328Z,13.50
2018-04-14T18:25:55.765Z,13.50
2018-04-14T18:29:05.137Z,13.30
2018-04-14T18:32:15.320Z,13.10
2018-04-14T18:35:24.677Z,12.80
2018-04-14T18:38:34.015Z,12.90
2018-04-14T18:41:43.331Z,12.90
2018-04-14T18:44:52.763Z,12.80
2018-04-14T18:48:02.615Z,12.90
2018-04-14T18:51:12.556Z,12.70
2018-04-14T18:54:21.991Z,12.70
2018-04-14T18:57:31.755Z,12.60
2018-04-14T19:00:41.101Z,12.60
2018-04-14T19:03:51.287Z,12.30
2018-04-14T19:07:00.662Z,12.20
2018-04-14T19:10:10.518Z,12.20
2018-04-14T19:13:19.796Z,12.40
2018-04-14T19:16:29.539Z,12.10
2018-04-14T19:19:39.704Z,12.10
2018-04-14T19:22:49.159Z,11.90
2018-04-14T19:25:58.615Z,12.80
2018-04-14T19:29:08.109Z,11.80
2018-04-14T19:32:18.206Z,12.00
2018-04-14T19:35:28.251Z,11.90
2018-04-14T19:38:37.572Z,11.90
2018-04-14T19:41:47.513Z,11.90
2018-04-14T19:44:57.208Z,11.90
2018-04-14T19:48:06.630Z,11.80
2018-04-14T19:51:20.024Z,11.70
2018-04-14T19:54:30.156Z,11.70
2018-04-14T19:57:39.456Z,11.80
2018-04-14T20:00:48.893Z,11.60
2018-04-14T20:03:58.382Z,11.70
2018-04-14T20:07:07.974Z,11.70
2018-04-14T20:10:17.249Z,11.60
2018-04-14T20:13:26.997Z,11.40
2018-04-14T20:16:36.800Z,11.40
2018-04-14T20:19:46.153Z,11.50
2018-04-14T20:22:56.485Z,11.30
2018-04-14T20:26:06.125Z,11.10
2018-04-14T20:29:16.360Z,11.10
2018-04-14T20:32:25.721Z,10.80
2018-04-14T20:35:35.163Z,10.80
2018-04-14T20:38:45.560Z,10.90
2018-04-14T20:41:55.277Z,10.70
2018-04-14T20:45:05.321Z,10.60
2018-04-14T20:48:14.627Z,10.40
2018-04-14T20:51:24.048Z,10.30
2018-04-14T20:54:34.383Z,10.20
2018-04-14T20:57:43.861Z,10.00
2018-04-14T21:00:53.214Z,10.20
2018-04-14T21:04:02.555Z,9.80
2018-04-14T21:07:11.989Z,10.00
2018-04-14T21:10:21.284Z,10.00
2018-04-14T21:13:31.686Z,9.80
2018-04-14T21:16:41.191Z,9.90
2018-04-14T21:19:51.472Z,9.80
2018-04-14T21:23:00.971Z,9.70
2018-04-14T21:26:11.116Z,9.80
2018-04-14T21:29:21.217Z,9.70
2018-04-14T21:32:31.609Z,9.80
2018-04-14T21:35:41.608Z,9.90
2018-04-14T21:38:51.044Z,9.80
2018-04-14T21:42:01.362Z,9.80
2018-04-14T21:45:10.788Z,9.90
2018-04-14T21:48:20.107Z,9.80
2018-04-14T21:51:30.198Z,9.80
2018-04-14T21:54:40.333Z,9.90
2018-04-14T21:57:49.635Z,10.10
2018-04-14T22:00:59.688Z,10.10
2018-04-14T22:04:09.946Z,10.10
2018-04-14T22:07:19.923Z,10.10
2018-04-14T22:10:29.675Z,10.00
2018-04-14T22:13:39.815Z,10.10
2018-04-14T22:16:49.312Z,10.10
2018-04-14T22:19:58.816Z,10.10
2018-04-14T22:23:08.121Z,10.10
2018-04-14T22:26:19.180Z,10.20
2018-04-14T22:29:28.747Z,10.10
2018-04-14T22:32:38.931Z,10.30
2018-04-14T22:35:48.348Z,10.20
2018-04-14T22:38:57.953Z,10.40
2018-04-14T22:42:08.002Z,10.20
2018-04-14T22:45:18.136Z,10.40
2018-04-14T22:48:27.608Z,10.40
2018-04-14T22:51:36.836Z,10.50
2018-04-14T22:54:46.664Z,10.60
2018-04-14T22:57:55.944Z,10.50
2018-04-14T23:01:05.372Z,10.60
2018-04-14T23:04:15.359Z,10.50
2018-04-14T23:07:24.651Z,10.40
2018-04-14T23:10:34.852Z,10.40
2018-04-14T23:13:44.984Z,10.40
2018-04-14T23:16:54.337Z,10.40
2018-04-14T23:20:03.631Z,10.50
2018-04-14T23:23:13.479Z,10.30
2018-04-14T23:26:23.360Z,10.20
2018-04-14T23:29:32.832Z,10.30
2018-04-14T23:32:42.187Z,10.20
2018-04-14T23:35:52.366Z,10.30
2018-04-14T23:39:02.496Z,10.30
2018-04-14T23:42:11.967Z,10.50
2018-04-14T23:45:21.852Z,9.60
2018-04-14T23:48:31.212Z,10.40
2018-04-14T23:51:40.473Z,10.30
2018-04-14T23:54:49.821Z,10.30
2018-04-14T23:57:59.237Z,10.40
